Time;durP1;ratioP1;P1;durP2;ratioP2;P2;SDS_P1;SDS_P2;PMS_P1;PMS_P2;Temp;Humidity;BMP_temperature;BMP_pressure;BME280_temperature;BME280_humidity;BME280_pressure;Samples;Min_cycle;Max_cycle;Signal;HPM_P1;HPM_P2
2022/05/12 00:00:12;;;;;;;19.13;12.48;;;17.20;99.90;;;;;;5091920;28;20365;-86
2022/05/12 00:02:39;;;;;;;21.95;13.15;;;17.20;99.90;;;;;;5090444;28;20445;-85
2022/05/12 00:05:07;;;;;;;19.77;13.18;;;17.30;99.90;;;;;;5091700;28;20372;-86
2022/05/12 00:07:34;;;;;;;24.75;13.85;;;17.40;99.90;;;;;;5091673;28;20371;-87
2022/05/12 00:10:01;;;;;;;20.02;14.25;;;17.40;99.90;;;;;;5091619;28;20418;-90
2022/05/12 00:12:28;;;;;;;23.13;14.63;;;17.50;99.90;;;;;;5091940;28;20461;-90
2022/05/12 00:14:56;;;;;;;22.38;14.95;;;17.40;99.90;;;;;;5092287;28;20373;-86
2022/05/12 00:17:23;;;;;;;21.30;14.13;;;17.40;99.90;;;;;;5091354;28;20400;-85
2022/05/12 00:19:50;;;;;;;20.27;14.80;;;17.50;99.90;;;;;;5091853;28;20364;-85
2022/05/12 00:22:17;;;;;;;24.25;16.27;;;17.40;99.90;;;;;;5091297;28;20381;-86
2022/05/12 00:24:44;;;;;;;23.17;15.30;;;17.40;99.90;;;;;;5091474;28;20381;-89
2022/05/12 00:27:11;;;;;;;22.88;15.00;;;17.40;99.90;;;;;;5091712;28;20433;-91
2022/05/12 00:29:38;;;;;;;24.23;15.38;;;17.40;99.90;;;;;;5090987;28;20892;-85
2022/05/12 00:32:05;;;;;;;24.40;15.07;;;17.40;99.90;;;;;;5090947;28;20400;-85
2022/05/12 00:34:32;;;;;;;23.30;14.73;;;17.40;99.90;;;;;;5091250;28;20415;-86
2022/05/12 00:36:59;;;;;;;24.20;14.52;;;17.40;99.90;;;;;;5091244;28;20446;-86
2022/05/12 00:39:26;;;;;;;22.38;14.40;;;17.40;99.90;;;;;;5092076;28;20447;-86
2022/05/12 00:41:53;;;;;;;21.48;15.10;;;17.50;99.90;;;;;;5090906;28;20899;-85
2022/05/12 00:44:20;;;;;;;20.13;13.55;;;17.50;99.90;;;;;;5090618;28;20384;-85
2022/05/12 00:46:50;;;;;;;20.38;13.00;;;17.60;99.90;;;;;;5090856;28;20470;-86
2022/05/12 00:49:29;;;;;;;21.05;13.05;;;17.70;99.90;;;;;;5090808;28;20360;-85
2022/05/12 00:51:59;;;;;;;26.37;12.97;;;17.60;99.90;;;;;;5091230;28;20364;-90
2022/05/12 00:55:03;;;;;;;20.65;12.10;;;17.70;99.90;;;;;;5090411;28;20373;-85
2022/05/12 00:57:35;;;;;;;21.38;12.45;;;17.80;99.90;;;;;;5090601;28;20429;-85
2022/05/12 01:00:05;;;;;;;17.60;11.93;;;17.90;99.90;;;;;;5090629;28;20353;-85
2022/05/12 01:02:33;;;;;;;16.17;12.38;;;17.90;99.90;;;;;;5090605;28;20369;-86
2022/05/12 01:05:01;;;;;;;19.42;13.32;;;17.90;99.90;;;;;;5088974;28;20886;-86
2022/05/12 01:07:28;;;;;;;21.33;14.23;;;17.90;99.90;;;;;;5092234;28;20381;-84
2022/05/12 01:09:55;;;;;;;23.30;14.30;;;18.00;99.90;;;;;;5090778;28;20383;-88
2022/05/12 01:12:24;;;;;;;20.35;14.18;;;18.00;99.90;;;;;;5090139;28;20886;-85
2022/05/12 01:14:51;;;;;;;19.77;14.63;;;17.90;99.90;;;;;;5090224;28;20463;-86
2022/05/12 01:17:19;;;;;;;20.98;14.65;;;18.00;99.90;;;;;;5088749;28;20870;-86
2022/05/12 01:19:48;;;;;;;20.45;14.23;;;18.00;99.90;;;;;;5089961;28;20455;-86
2022/05/12 01:22:41;;;;;;;19.38;12.60;;;18.10;99.90;;;;;;5090025;28;20457;-86
2022/05/12 01:25:12;;;;;;;20.83;11.38;;;18.10;99.90;;;;;;5089789;28;20360;-86
2022/05/12 01:27:42;;;;;;;18.63;10.30;;;18.20;99.90;;;;;;5090221;28;20501;-85
2022/05/12 01:30:12;;;;;;;16.92;9.70;;;18.30;99.90;;;;;;5088332;28;20491;-85
2022/05/12 01:32:39;;;;;;;16.58;9.52;;;18.40;99.90;;;;;;5090000;28;20435;-85
2022/05/12 01:35:07;;;;;;;19.70;10.82;;;18.30;99.90;;;;;;5089959;28;20434;-85
2022/05/12 01:37:39;;;;;;;21.20;13.05;;;18.40;99.90;;;;;;5089902;28;20397;-87
2022/05/12 01:40:12;;;;;;;22.02;13.68;;;18.50;99.90;;;;;;5089426;28;21371;-85
2022/05/12 01:42:39;;;;;;;20.67;12.32;;;18.40;99.90;;;;;;5089707;28;20770;-85
2022/05/12 01:45:09;;;;;;;17.30;8.80;;;18.40;99.90;;;;;;5091288;28;20368;-86
2022/05/12 01:47:36;;;;;;;23.17;9.77;;;18.50;99.90;;;;;;5091119;28;20372;-84
2022/05/12 01:50:05;;;;;;;16.63;8.70;;;18.50;99.90;;;;;;5090816;28;20361;-88
2022/05/12 01:52:32;;;;;;;16.85;9.35;;;18.50;99.90;;;;;;5090529;28;20372;-89
2022/05/12 01:54:59;;;;;;;16.40;9.75;;;18.50;99.90;;;;;;5090368;28;20387;-86
2022/05/12 01:57:28;;;;;;;18.35;10.27;;;18.50;99.90;;;;;;5089623;28;20392;-85
2022/05/12 01:59:55;;;;;;;18.95;11.50;;;18.70;99.90;;;;;;5092391;28;20782;-84
2022/05/12 02:02:23;;;;;;;20.23;11.90;;;18.70;99.90;;;;;;5092485;28;20388;-86
2022/05/12 02:04:50;;;;;;;21.73;13.83;;;18.60;99.90;;;;;;5092467;28;20369;-85
2022/05/12 02:07:18;;;;;;;18.38;11.82;;;18.70;99.90;;;;;;5091824;28;20377;-85
2022/05/12 02:09:46;;;;;;;18.27;11.35;;;18.70;99.90;;;;;;5091842;28;20501;-83
2022/05/12 02:12:12;;;;;;;18.05;10.20;;;18.80;99.90;;;;;;5092603;28;20426;-85
2022/05/12 02:14:39;;;;;;;19.40;11.32;;;18.70;99.90;;;;;;5092694;28;20432;-85
2022/05/12 02:17:07;;;;;;;19.67;12.23;;;18.70;99.90;;;;;;5090689;28;20396;-85
2022/05/12 02:19:34;;;;;;;18.35;10.50;;;18.60;99.90;;;;;;5089833;28;20375;-89
2022/05/12 02:22:03;;;;;;;16.27;9.55;;;18.70;99.90;;;;;;5089642;28;20906;-86
2022/05/12 02:24:30;;;;;;;20.30;11.93;;;18.50;99.90;;;;;;5089719;28;20368;-87
2022/05/12 02:26:57;;;;;;;21.85;13.50;;;18.50;99.90;;;;;;5091562;28;20387;-89
2022/05/12 02:29:25;;;;;;;23.35;15.93;;;18.50;99.90;;;;;;5091267;28;20368;-86
2022/05/12 02:31:53;;;;;;;18.75;11.55;;;18.40;99.90;;;;;;5093919;28;20880;-84
2022/05/12 02:34:20;;;;;;;20.55;11.75;;;18.50;99.90;;;;;;5092349;28;20379;-88
2022/05/12 02:37:02;;;;;;;19.67;9.55;;;18.50;99.90;;;;;;5090816;28;20880;-84
2022/05/12 02:39:31;;;;;;;20.83;10.00;;;18.50;99.90;;;;;;5089489;28;20383;-85
2022/05/12 02:41:59;;;;;;;19.10;8.85;;;18.30;99.90;;;;;;5089841;28;20457;-84
2022/05/12 02:44:26;;;;;;;17.02;7.90;;;18.40;99.90;;;;;;5089358;28;20399;-86
2022/05/12 02:46:53;;;;;;;19.60;8.05;;;18.40;99.90;;;;;;5087994;28;20501;-89
2022/05/12 02:49:20;;;;;;;17.27;7.90;;;18.40;99.90;;;;;;5089325;28;20404;-92
2022/05/12 02:51:50;;;;;;;17.15;8.30;;;18.40;99.90;;;;;;5087391;28;20741;-86
2022/05/12 02:54:19;;;;;;;17.58;8.23;;;18.50;99.90;;;;;;5089512;28;20397;-89
2022/05/12 02:56:49;;;;;;;15.93;7.83;;;18.60;99.90;;;;;;5091750;28;20450;-86
2022/05/12 02:59:17;;;;;;;17.52;8.00;;;18.60;99.90;;;;;;5093221;28;20404;-86
2022/05/12 03:01:44;;;;;;;17.40;7.68;;;18.50;99.90;;;;;;5092798;28;20459;-85
2022/05/12 03:04:11;;;;;;;17.42;8.27;;;18.50;99.90;;;;;;5093135;28;20360;-87
2022/05/12 03:06:38;;;;;;;19.85;8.55;;;18.30;99.90;;;;;;5092789;28;20701;-86
2022/05/12 03:09:06;;;;;;;15.70;7.43;;;18.40;99.90;;;;;;5092666;28;20382;-86
2022/05/12 03:11:33;;;;;;;17.08;8.00;;;18.40;99.90;;;;;;5092748;28;20369;-85
2022/05/12 03:14:00;;;;;;;17.83;8.00;;;18.40;99.90;;;;;;5093174;28;20455;-88
2022/05/12 03:16:27;;;;;;;18.35;8.95;;;18.40;99.90;;;;;;5092365;28;20467;-86
2022/05/12 03:18:54;;;;;;;18.58;8.40;;;18.50;99.90;;;;;;5092953;28;20522;-91
2022/05/12 03:21:21;;;;;;;16.40;8.73;;;18.50;99.90;;;;;;5092485;28;20463;-89
2022/05/12 03:23:49;;;;;;;17.23;8.93;;;18.60;99.90;;;;;;5092414;28;20412;-86
2022/05/12 03:26:16;;;;;;;15.40;8.77;;;18.60;99.90;;;;;;5092337;28;20368;-86
2022/05/12 03:28:43;;;;;;;20.38;8.98;;;18.60;99.90;;;;;;5092761;28;20447;-85
2022/05/12 03:31:10;;;;;;;18.15;8.35;;;18.60;99.90;;;;;;5092304;28;20422;-91
2022/05/12 03:33:38;;;;;;;14.27;7.10;;;18.60;99.90;;;;;;5092352;28;20497;-88
2022/05/12 03:36:10;;;;;;;16.67;7.85;;;18.60;99.90;;;;;;5092463;28;20445;-86
2022/05/12 03:38:37;;;;;;;15.85;7.95;;;18.60;99.90;;;;;;5093083;28;20372;-90
2022/05/12 03:41:05;;;;;;;15.85;8.27;;;18.60;99.90;;;;;;5094169;28;20368;-86
2022/05/12 03:46:18;;;;;;;14.55;7.60;;;18.70;99.90;;;;;;5094907;28;20402;-85
2022/05/12 03:48:45;;;;;;;13.60;7.28;;;18.70;99.90;;;;;;5094914;28;20477;-83
2022/05/12 03:51:12;;;;;;;16.80;8.27;;;18.80;99.90;;;;;;5094636;28;20368;-90
2022/05/12 03:53:40;;;;;;;16.52;8.57;;;18.80;99.90;;;;;;5094738;28;20372;-84
2022/05/12 03:56:08;;;;;;;16.33;8.20;;;18.80;99.90;;;;;;5094882;28;20392;-83
2022/05/12 03:58:36;;;;;;;13.77;8.32;;;18.90;99.90;;;;;;5096087;28;20412;-84
2022/05/12 04:01:05;;;;;;;14.10;7.95;;;19.00;99.90;;;;;;5096210;28;20482;-83
2022/05/12 04:03:32;;;;;;;19.77;9.00;;;19.10;99.90;;;;;;5095385;28;20383;-83
2022/05/12 04:06:02;;;;;;;16.05;8.80;;;19.10;99.90;;;;;;5094302;28;20361;-83
2022/05/12 04:08:30;;;;;;;14.77;8.52;;;19.10;99.90;;;;;;5093218;28;20389;-87
2022/05/12 04:10:57;;;;;;;16.13;8.73;;;19.10;99.90;;;;;;5091945;28;20388;-83
2022/05/12 04:13:24;;;;;;;14.20;8.93;;;19.10;99.90;;;;;;5092728;28;20860;-88
2022/05/12 04:15:52;;;;;;;17.20;9.35;;;19.00;99.90;;;;;;5091961;28;20433;-86
2022/05/12 04:18:19;;;;;;;14.98;8.77;;;19.10;99.90;;;;;;5091837;28;20412;-86
2022/05/12 04:20:46;;;;;;;18.38;9.43;;;19.00;99.90;;;;;;5091417;28;20592;-84
2022/05/12 04:23:13;;;;;;;15.32;9.23;;;19.00;99.90;;;;;;5092059;28;20410;-89
2022/05/12 04:25:40;;;;;;;16.23;9.30;;;19.10;99.90;;;;;;5091482;28;20381;-87
2022/05/12 04:28:08;;;;;;;16.95;9.48;;;19.10;99.90;;;;;;5091133;28;20382;-84
2022/05/12 04:30:36;;;;;;;19.73;9.75;;;19.10;99.90;;;;;;5091520;28;20385;-88
2022/05/12 04:35:48;;;;;;;20.38;8.80;;;19.10;99.90;;;;;;5090986;28;20449;-85
2022/05/12 04:38:15;;;;;;;18.33;9.02;;;19.10;99.90;;;;;;5091028;28;20865;-86
2022/05/12 04:40:42;;;;;;;22.35;9.95;;;19.10;99.90;;;;;;5091169;28;20422;-86
2022/05/12 04:43:09;;;;;;;22.08;9.57;;;19.00;99.90;;;;;;5091356;28;20430;-87
2022/05/12 04:45:36;;;;;;;20.15;8.30;;;19.00;99.90;;;;;;5091468;28;20763;-85
2022/05/12 04:48:04;;;;;;;17.02;9.68;;;19.10;99.90;;;;;;5091224;28;20377;-85
2022/05/12 04:50:34;;;;;;;20.52;9.40;;;19.10;99.90;;;;;;5089828;28;20372;-86
2022/05/12 04:53:02;;;;;;;18.42;8.55;;;19.30;99.90;;;;;;5090885;28;20376;-93
2022/05/12 04:55:30;;;;;;;20.23;8.47;;;19.30;99.90;;;;;;5091453;28;20400;-90
2022/05/12 04:57:59;;;;;;;17.65;9.30;;;19.30;99.90;;;;;;5092144;28;20400;-94
2022/05/12 05:00:44;;;;;;;20.90;9.07;;;19.30;99.90;;;;;;5091432;28;20741;-92
2022/05/12 05:03:12;;;;;;;18.92;8.90;;;19.40;99.90;;;;;;5091300;28;20469;-96
2022/05/12 05:05:39;;;;;;;21.95;9.27;;;19.30;99.90;;;;;;5091085;28;20380;-92
2022/05/12 05:08:06;;;;;;;20.85;8.77;;;19.30;99.90;;;;;;5090968;28;20368;-84
2022/05/12 05:10:34;;;;;;;22.23;8.40;;;19.20;99.90;;;;;;5090933;28;20447;-84
2022/05/12 05:13:01;;;;;;;20.50;8.90;;;19.30;99.90;;;;;;5091009;28;20380;-84
2022/05/12 05:15:28;;;;;;;18.50;8.60;;;19.30;99.90;;;;;;5091020;28;20376;-83
2022/05/12 05:17:55;;;;;;;20.23;9.00;;;19.30;99.90;;;;;;5090693;28;20392;-84
2022/05/12 05:20:26;;;;;;;16.85;8.77;;;19.20;99.90;;;;;;5090846;28;20373;-85
2022/05/12 05:22:54;;;;;;;19.48;10.18;;;19.10;99.90;;;;;;5090443;28;20544;-83
2022/05/12 05:25:21;;;;;;;24.15;10.10;;;19.20;99.90;;;;;;5090753;28;20368;-85
2022/05/12 05:27:49;;;;;;;19.00;10.60;;;19.10;99.90;;;;;;5090607;28;20399;-85
2022/05/12 05:30:19;;;;;;;20.70;11.07;;;19.10;99.90;;;;;;5090273;28;20400;-84
2022/05/12 05:32:47;;;;;;;22.90;11.63;;;19.10;99.90;;;;;;5090613;28;20400;-91
2022/05/12 05:38:36;;;;;;;23.20;12.13;;;19.00;99.90;;;;;;5090004;28;20380;-87
2022/05/12 05:41:03;;;;;;;23.02;12.23;;;19.10;99.90;;;;;;5090076;28;20373;-85
2022/05/12 05:43:30;;;;;;;28.13;13.10;;;19.00;99.90;;;;;;5090063;28;20373;-85
2022/05/12 05:45:57;;;;;;;23.37;13.53;;;19.00;99.90;;;;;;5090236;28;20389;-89
2022/05/12 05:48:24;;;;;;;24.83;14.47;;;18.90;99.90;;;;;;5090763;28;20458;-89
2022/05/12 05:53:38;;;;;;;26.30;15.60;;;19.00;99.90;;;;;;5090382;28;20407;-85
2022/05/12 05:56:11;;;;;;;27.20;15.70;;;19.00;99.90;;;;;;5090185;28;20392;-88
2022/05/12 05:58:40;;;;;;;28.50;15.88;;;19.00;99.90;;;;;;5090512;28;20381;-83
2022/05/12 06:01:07;;;;;;;27.48;15.85;;;18.90;99.90;;;;;;5089669;28;20391;-84
2022/05/12 06:03:34;;;;;;;31.15;17.55;;;18.80;99.90;;;;;;5089831;28;20373;-84
2022/05/12 06:06:01;;;;;;;31.48;17.38;;;18.80;99.90;;;;;;5089422;28;20452;-85
2022/05/12 06:08:28;;;;;;;30.58;17.45;;;18.80;99.90;;;;;;5089422;28;20501;-87
2022/05/12 06:10:55;;;;;;;33.83;18.25;;;18.80;99.90;;;;;;5089143;28;20452;-83
2022/05/12 06:13:22;;;;;;;29.00;17.92;;;18.70;99.90;;;;;;5089353;28;20898;-89
2022/05/12 06:15:50;;;;;;;30.02;16.48;;;18.80;99.90;;;;;;5087866;28;20376;-84
2022/05/12 06:18:18;;;;;;;30.48;17.08;;;18.80;99.90;;;;;;5089515;28;20393;-88
2022/05/12 06:20:47;;;;;;;32.47;17.48;;;18.70;99.90;;;;;;5089908;28;20407;-87
2022/05/12 06:23:15;;;;;;;32.95;18.20;;;18.70;99.90;;;;;;5089868;28;20427;-85
2022/05/12 06:25:42;;;;;;;34.08;18.40;;;18.70;99.90;;;;;;5089205;28;20372;-86
2022/05/12 06:28:09;;;;;;;34.65;18.60;;;18.60;99.90;;;;;;5088477;28;20376;-84
2022/05/12 06:30:37;;;;;;;30.65;18.27;;;18.60;99.90;;;;;;5088885;28;20399;-85
2022/05/12 06:33:05;;;;;;;36.88;19.45;;;18.50;99.90;;;;;;5089970;28;20709;-90
2022/05/12 06:35:32;;;;;;;38.65;20.15;;;18.50;99.90;;;;;;5089906;28;20432;-84
2022/05/12 06:37:59;;;;;;;35.50;19.08;;;18.50;99.90;;;;;;5090272;28;20481;-89
2022/05/12 06:40:26;;;;;;;35.57;18.67;;;18.50;99.90;;;;;;5091025;28;20860;-91
2022/05/12 06:42:54;;;;;;;39.10;20.70;;;18.50;99.90;;;;;;5089944;28;20525;-92
2022/05/12 06:45:22;;;;;;;40.00;21.05;;;18.50;99.90;;;;;;5089010;28;20462;-83
2022/05/12 06:47:54;;;;;;;42.15;22.02;;;18.50;99.90;;;;;;5089853;28;20453;-89
2022/05/12 06:50:26;;;;;;;47.83;22.58;;;18.40;99.90;;;;;;5089206;28;20372;-89
2022/05/12 06:52:54;;;;;;;54.15;23.73;;;18.40;99.90;;;;;;5082843;28;20726;-87
2022/05/12 06:55:24;;;;;;;47.90;23.33;;;18.40;99.90;;;;;;5088157;28;20376;-88
2022/05/12 06:57:51;;;;;;;47.38;23.95;;;18.30;99.90;;;;;;5088693;28;20407;-88
2022/05/12 07:00:18;;;;;;;47.13;23.67;;;18.30;99.90;;;;;;5088377;28;20371;-87
2022/05/12 07:02:46;;;;;;;48.25;23.77;;;18.30;99.90;;;;;;5088665;28;20384;-86
2022/05/12 07:05:23;;;;;;;46.00;23.67;;;18.30;99.90;;;;;;5087460;28;20908;-88
2022/05/12 07:07:51;;;;;;;50.22;24.05;;;18.30;99.90;;;;;;5088722;28;20724;-87
2022/05/12 07:10:20;;;;;;;53.70;24.98;;;18.30;99.90;;;;;;5087492;28;20381;-89
2022/05/12 07:12:57;;;;;;;50.83;24.27;;;18.30;99.90;;;;;;5088138;28;20378;-88
2022/05/12 07:15:27;;;;;;;49.20;24.42;;;18.30;99.90;;;;;;5090555;28;20391;-87
2022/05/12 07:17:55;;;;;;;49.30;24.98;;;18.20;99.90;;;;;;5089321;28;20400;-89
2022/05/12 07:28:40;;;;;;;72.93;28.35;;;18.20;99.90;;;;;;5088470;28;20386;-85
2022/05/12 07:31:09;;;;;;;58.10;26.38;;;18.20;99.90;;;;;;5086717;28;20395;-85
2022/05/12 07:33:39;;;;;;;50.30;25.02;;;18.10;99.90;;;;;;5088627;28;20709;-85
2022/05/12 07:36:11;;;;;;;42.63;22.80;;;18.20;99.90;;;;;;5088596;28;20378;-84
2022/05/12 07:38:39;;;;;;;55.57;26.57;;;18.20;99.90;;;;;;5088646;28;20408;-84
2022/05/12 07:41:07;;;;;;;75.82;28.00;;;18.20;99.90;;;;;;5089789;28;20773;-84
2022/05/12 07:43:34;;;;;;;68.53;27.00;;;18.20;99.90;;;;;;5095348;28;20786;-86
2022/05/12 07:46:01;;;;;;;55.17;25.77;;;18.10;99.90;;;;;;5097492;28;20472;-85
2022/05/12 07:48:28;;;;;;;63.42;27.77;;;18.10;99.90;;;;;;5101333;28;20377;-84
2022/05/12 07:50:55;;;;;;;82.45;30.35;;;18.10;99.90;;;;;;5099090;28;20432;-83
2022/05/12 07:53:22;;;;;;;80.28;29.13;;;18.10;99.90;;;;;;5095818;28;20380;-79
2022/05/12 07:55:49;;;;;;;65.35;28.20;;;18.10;99.90;;;;;;5092825;28;20392;-86
2022/05/12 07:58:18;;;;;;;67.95;28.08;;;18.10;99.90;;;;;;5093459;28;20399;-84
2022/05/12 08:00:46;;;;;;;65.80;27.65;;;18.10;99.90;;;;;;5094401;28;20368;-86
2022/05/12 08:03:13;;;;;;;68.90;27.50;;;18.10;99.90;;;;;;5093591;28;20478;-86
2022/05/12 08:05:40;;;;;;;68.60;27.97;;;18.10;99.90;;;;;;5092289;28;20479;-86
2022/05/12 08:08:09;;;;;;;58.70;26.42;;;18.10;99.90;;;;;;5091303;28;20857;-90
2022/05/12 08:10:36;;;;;;;63.88;27.83;;;18.10;99.90;;;;;;5091509;28;20781;-84
2022/05/12 08:13:04;;;;;;;66.00;27.30;;;18.10;99.90;;;;;;5091076;28;20379;-84
2022/05/12 08:15:32;;;;;;;61.53;26.13;;;18.20;99.90;;;;;;5091323;28;20744;-85
2022/05/12 08:18:00;;;;;;;63.38;29.05;;;18.10;99.90;;;;;;5090044;28;20436;-85
2022/05/12 08:20:27;;;;;;;106.13;40.67;;;18.10;99.90;;;;;;5091168;28;20427;-82
2022/05/12 08:22:54;;;;;;;67.30;33.88;;;18.10;99.90;;;;;;5090994;28;20391;-83
2022/05/12 08:25:21;;;;;;;70.68;33.30;;;18.10;99.90;;;;;;5090736;28;20376;-84
2022/05/12 08:27:49;;;;;;;66.18;32.58;;;18.00;99.90;;;;;;5090708;28;20369;-84
2022/05/12 08:30:17;;;;;;;58.13;30.70;;;18.00;99.90;;;;;;5090845;28;20388;-84
2022/05/12 08:32:44;;;;;;;65.75;31.25;;;18.00;99.90;;;;;;5090926;28;20379;-85
2022/05/12 08:35:12;;;;;;;66.03;30.53;;;18.00;99.90;;;;;;5090517;28;20442;-84
2022/05/12 08:37:39;;;;;;;55.28;27.60;;;18.00;99.90;;;;;;5090908;28;20568;-84
2022/05/12 08:40:15;;;;;;;57.08;27.80;;;18.00;99.90;;;;;;5091049;28;20365;-84
2022/05/12 08:42:46;;;;;;;50.00;26.33;;;18.00;99.90;;;;;;5090996;28;20453;-85
2022/05/12 08:45:17;;;;;;;46.03;25.52;;;18.00;99.90;;;;;;5090680;28;20373;-85
2022/05/12 08:47:48;;;;;;;45.60;26.10;;;18.00;99.90;;;;;;5089718;28;20449;-84
2022/05/12 08:50:33;;;;;;;61.38;27.55;;;18.00;99.90;;;;;;5089180;28;20408;-82
2022/05/12 08:53:05;;;;;;;46.67;24.67;;;18.00;99.90;;;;;;5090059;28;20376;-84
2022/05/12 08:55:55;;;;;;;50.30;25.58;;;17.90;99.90;;;;;;5089201;28;20379;-83
2022/05/12 08:58:27;;;;;;;53.42;26.33;;;17.90;99.90;;;;;;5090340;28;20384;-85
2022/05/12 09:01:22;;;;;;;49.17;25.20;;;17.90;99.90;;;;;;5089304;28;20771;-84
2022/05/12 09:04:16;;;;;;;54.20;26.45;;;17.90;99.90;;;;;;5090150;28;20384;-84
2022/05/12 09:07:06;;;;;;;50.92;26.35;;;18.00;99.90;;;;;;5090675;28;20886;-84
2022/05/12 09:09:55;;;;;;;50.88;25.73;;;18.00;99.90;;;;;;5089241;28;20377;-85
2022/05/12 09:12:28;;;;;;;70.45;28.05;;;18.00;99.90;;;;;;5050818;28;20453;-85
2022/05/12 09:15:23;;;;;;;73.73;27.80;;;17.90;99.90;;;;;;5048704;28;20380;-84
2022/05/12 09:18:00;;;;;;;73.45;26.05;;;18.00;99.90;;;;;;5047707;28;20406;-85
2022/05/12 09:20:31;;;;;;;64.03;24.25;;;18.00;99.90;;;;;;5047719;28;20372;-85
2022/05/12 09:23:02;;;;;;;44.58;21.55;;;18.00;99.90;;;;;;5050318;28;20375;-85
2022/05/12 09:25:38;;;;;;;44.08;20.95;;;18.00;99.90;;;;;;5047722;28;20404;-84
2022/05/12 09:28:33;;;;;;;47.87;21.37;;;18.00;99.90;;;;;;5052248;28;20451;-85
2022/05/12 09:31:17;;;;;;;53.40;22.23;;;18.00;99.90;;;;;;5047882;28;20449;-85
2022/05/12 09:33:47;;;;;;;43.50;19.67;;;18.00;99.90;;;;;;5048020;28;20375;-84
2022/05/12 09:36:20;;;;;;;37.85;18.88;;;18.00;99.90;;;;;;5047457;28;20423;-83
2022/05/12 09:38:48;;;;;;;44.17;20.65;;;18.00;99.90;;;;;;5047522;28;20518;-84
2022/05/12 09:41:24;;;;;;;44.23;20.57;;;18.00;99.90;;;;;;5030479;28;20755;-84
2022/05/12 09:43:53;;;;;;;38.00;19.42;;;17.90;99.90;;;;;;5047616;28;20368;-85
2022/05/12 09:46:29;;;;;;;47.22;21.23;;;17.90;99.90;;;;;;5047272;28;20399;-84
2022/05/12 09:49:17;;;;;;;47.45;21.52;;;17.90;99.90;;;;;;5061129;28;20404;-85
2022/05/12 09:51:44;;;;;;;63.10;24.02;;;17.90;99.90;;;;;;5088048;28;20859;-85
2022/05/12 09:54:28;;;;;;;50.13;22.77;;;17.90;99.90;;;;;;5089628;28;20388;-84
2022/05/12 09:57:20;;;;;;;57.78;24.23;;;17.90;99.90;;;;;;5089231;28;20392;-84
2022/05/12 09:59:58;;;;;;;50.03;22.30;;;17.80;99.90;;;;;;5089163;28;20364;-84
2022/05/12 10:08:20;;;;;;;43.53;21.92;;;17.80;99.90;;;;;;5090015;28;20411;-84
2022/05/12 10:10:54;;;;;;;47.83;22.70;;;17.80;99.90;;;;;;5089588;28;20410;-83
2022/05/12 10:13:50;;;;;;;54.90;22.52;;;17.80;99.90;;;;;;5089621;28;20363;-85
2022/05/12 10:16:26;;;;;;;63.10;25.00;;;17.80;99.90;;;;;;5089270;28;20471;-84
2022/05/12 10:18:59;;;;;;;54.90;24.73;;;17.80;99.90;;;;;;5089402;28;20875;-84
2022/05/12 10:22:05;;;;;;;57.92;25.92;;;17.80;99.90;;;;;;5089426;28;20812;-84
2022/05/12 10:24:58;;;;;;;57.17;26.27;;;17.80;99.90;;;;;;5087868;28;20374;-83
2022/05/12 10:27:34;;;;;;;49.95;25.27;;;17.80;99.90;;;;;;5089002;28;20671;-84
2022/05/12 10:30:25;;;;;;;66.87;27.97;;;17.80;99.90;;;;;;5089100;28;20389;-84
2022/05/12 10:33:17;;;;;;;57.53;27.85;;;17.80;99.90;;;;;;5071287;28;20385;-84
2022/05/12 10:36:08;;;;;;;60.83;28.42;;;17.80;99.90;;;;;;5089752;28;20425;-86
2022/05/12 10:38:44;;;;;;;69.55;31.73;;;17.80;99.90;;;;;;5090599;28;20401;-85
2022/05/12 10:41:33;;;;;;;58.33;29.65;;;17.80;99.90;;;;;;5089953;28;20364;-84
2022/05/12 10:44:21;;;;;;;84.75;35.03;;;17.80;99.90;;;;;;5088594;28;20379;-84
2022/05/12 10:46:54;;;;;;;62.88;32.55;;;17.80;99.90;;;;;;5090193;28;20383;-84
2022/05/12 10:49:27;;;;;;;72.50;33.70;;;17.90;99.90;;;;;;5089532;28;20376;-85
2022/05/12 10:52:24;;;;;;;92.80;36.72;;;17.90;99.90;;;;;;5088989;28;20368;-85
2022/05/12 10:55:08;;;;;;;82.60;35.85;;;17.90;99.90;;;;;;5088518;28;20808;-87
2022/05/12 10:57:47;;;;;;;68.55;33.47;;;17.90;99.90;;;;;;5088714;28;20396;-84
2022/05/12 11:00:20;;;;;;;92.03;36.60;;;17.90;99.90;;;;;;5089869;28;20861;-84
2022/05/12 11:03:07;;;;;;;72.20;33.55;;;17.90;99.90;;;;;;5090084;28;20856;-84
2022/05/12 11:05:38;;;;;;;63.88;31.67;;;17.90;99.90;;;;;;5088754;28;20427;-85
2022/05/12 11:08:09;;;;;;;67.97;31.20;;;17.90;99.90;;;;;;5088926;28;20379;-85
2022/05/12 11:10:54;;;;;;;71.90;33.13;;;17.80;99.90;;;;;;5088332;28;20400;-84
2022/05/12 11:13:24;;;;;;;61.15;30.73;;;17.90;99.90;;;;;;5088314;28;20369;-84
2022/05/12 11:16:03;;;;;;;52.53;28.33;;;17.90;99.90;;;;;;5090195;28;20447;-84
2022/05/12 11:19:08;;;;;;;63.08;30.58;;;17.80;99.90;;;;;;5092136;28;20381;-85
2022/05/12 11:21:49;;;;;;;64.68;30.38;;;17.80;99.90;;;;;;5050514;28;20411;-84
2022/05/12 11:24:30;;;;;;;62.42;30.05;;;17.80;99.90;;;;;;5049697;28;20413;-84
2022/05/12 11:27:15;;;;;;;78.65;32.92;;;17.80;99.90;;;;;;5050002;28;20391;-84
2022/05/12 11:30:04;;;;;;;62.72;31.70;;;17.80;99.90;;;;;;5049358;28;20392;-84
2022/05/12 11:32:39;;;;;;;69.00;30.23;;;17.80;99.90;;;;;;5049398;28;20845;-84
2022/05/12 11:35:12;;;;;;;78.38;32.70;;;17.80;99.90;;;;;;5049464;28;20902;-84
2022/05/12 11:37:39;;;;;;;68.45;31.48;;;17.80;99.90;;;;;;5051034;28;20399;-84
2022/05/12 11:40:13;;;;;;;63.88;29.42;;;17.70;99.90;;;;;;5049725;28;20380;-85
2022/05/12 11:45:48;;;;;;;69.53;30.50;;;17.70;99.90;;;;;;5050955;28;20378;-85
2022/05/12 11:48:43;;;;;;;64.35;29.38;;;17.70;99.90;;;;;;5049427;28;20488;-84
2022/05/12 11:51:18;;;;;;;61.28;29.35;;;17.70;99.90;;;;;;5049257;28;20422;-85
2022/05/12 11:54:20;;;;;;;71.00;32.37;;;17.70;99.90;;;;;;5049399;28;20372;-85
2022/05/12 11:56:55;;;;;;;62.20;31.70;;;17.80;99.90;;;;;;5045536;28;20505;-85
2022/05/12 11:59:30;;;;;;;66.03;32.70;;;17.70;99.90;;;;;;5090403;28;20858;-84
2022/05/12 12:02:35;;;;;;;68.63;34.10;;;17.70;99.90;;;;;;5091709;28;20528;-85
2022/05/12 12:05:09;;;;;;;74.80;35.75;;;17.70;99.90;;;;;;5091178;28;20398;-85
2022/05/12 12:07:35;;;;;;;63.85;32.47;;;17.80;99.90;;;;;;5091834;28;20361;-84
2022/05/12 12:10:24;;;;;;;77.00;34.72;;;17.80;99.90;;;;;;5091652;28;20412;-86
2022/05/12 12:12:56;;;;;;;77.30;34.20;;;17.80;99.90;;;;;;5091766;28;20408;-85
2022/05/12 12:15:35;;;;;;;78.63;34.08;;;17.80;99.90;;;;;;5091348;28;20361;-83
2022/05/12 12:18:22;;;;;;;65.30;32.25;;;17.80;99.90;;;;;;5091315;28;20388;-83
2022/05/12 12:20:54;;;;;;;70.72;31.52;;;17.80;99.90;;;;;;5091024;28;20372;-84
2022/05/12 12:23:36;;;;;;;66.90;30.50;;;17.80;99.90;;;;;;5090648;28;20384;-84
2022/05/12 12:29:51;;;;;;;63.70;30.33;;;17.80;99.90;;;;;;5090623;28;20396;-84
2022/05/12 12:32:35;;;;;;;64.07;30.83;;;17.80;99.90;;;;;;5091036;28;20441;-84
2022/05/12 12:35:28;;;;;;;61.58;30.08;;;17.80;99.90;;;;;;5090683;28;20369;-83
2022/05/12 12:37:55;;;;;;;57.42;28.33;;;17.80;99.90;;;;;;5090605;28;20407;-84
2022/05/12 12:40:31;;;;;;;72.57;31.35;;;17.70;99.90;;;;;;5090692;28;20447;-83
2022/05/12 12:43:15;;;;;;;64.47;30.00;;;17.70;99.90;;;;;;5090855;28;20380;-84
2022/05/12 12:45:48;;;;;;;75.25;31.75;;;17.70;99.90;;;;;;5089203;28;20491;-84
2022/05/12 12:48:32;;;;;;;69.80;30.27;;;17.80;99.90;;;;;;5090640;28;20456;-84
2022/05/12 12:50:59;;;;;;;63.10;28.73;;;17.80;99.90;;;;;;5090444;28;20379;-84
2022/05/12 12:56:36;;;;;;;62.70;28.23;;;17.80;99.90;;;;;;5090384;28;20371;-84
2022/05/12 12:59:04;;;;;;;69.30;28.60;;;17.80;99.90;;;;;;5088571;28;20423;-83
2022/05/12 13:01:51;;;;;;;59.13;26.40;;;17.80;99.90;;;;;;5090247;28;20951;-85
2022/05/12 13:04:37;;;;;;;68.30;27.63;;;17.90;99.90;;;;;;5090484;28;20380;-83
2022/05/12 13:07:08;;;;;;;64.68;26.83;;;17.90;99.90;;;;;;5090570;28;20365;-85
2022/05/12 13:09:38;;;;;;;67.93;27.10;;;17.90;99.90;;;;;;5089947;28;20379;-83
2022/05/12 13:12:24;;;;;;;62.72;26.25;;;17.90;99.90;;;;;;5090715;28;20738;-83
2022/05/12 13:14:52;;;;;;;69.80;27.17;;;17.90;99.90;;;;;;5090276;28;20368;-83
2022/05/12 13:17:21;;;;;;;58.45;24.90;;;17.80;99.90;;;;;;5089847;28;20457;-82
2022/05/12 13:19:49;;;;;;;66.95;26.38;;;17.90;99.90;;;;;;5089815;28;20499;-84
2022/05/12 13:22:35;;;;;;;65.70;27.60;;;17.80;99.90;;;;;;5089916;28;20388;-84
2022/05/12 13:25:02;;;;;;;59.53;27.10;;;17.80;99.90;;;;;;5089522;28;20393;-85
2022/05/12 13:27:35;;;;;;;64.27;27.63;;;17.80;99.90;;;;;;5089734;28;20405;-83